Latest Conditions
At L.F.Wade Int. Airport
Recorded at 5:55 pm
Partly Cloudy
Temp.: 
23°C/73°F
Humidity: 
75%
Wind: 
W 6KT
or 7mph
UV Index: 
1
Island Observations
Observations
Saturday, April 29, 2017

Observations are in local time and taken at least once an hour, or upon the start and end of specified events such as showers and thunderstorms.

Time Sky / Weather Wind Speed/Gusts Temp. R.H. Pressure
     knots (mph)  °C (°F)  %  mb / "Hg
 17:55 Partly Cloudy  W 6/0 (7/0) 23(73) 75 1026 / 30.30
 16:55 Partly Cloudy  NNW 7/0 (8/0) 23(74) 74 1027 / 30.32
 15:55 Partly Cloudy  NNW 8/0 (9/0) 23(74) 74 1027 / 30.34
 14:55 Partly Cloudy  NW 8/0 (9/0) 23(74) 74 1027 / 30.34
 13:55 Partly Cloudy  SW 5/0 (6/0) 24(75) 73 1027 / 30.34
 12:55 Partly Cloudy  SSW 6/0 (7/0) 23(73) 79 1027 / 30.34
 11:55 Partly Cloudy  NW 5/0 (6/0) 23(73) 78 1028 / 30.37
 10:55 Partly Cloudy  SW 2/0 (2/0) 23(73) 78 1028 / 30.37
 09:55 Partly Cloudy  WSW 5/0 (6/0) 22(72) 79 1028 / 30.36
 08:55 Partly Cloudy  WSW 4/0 (5/0) 21(70) 86 1028 / 30.36
 07:55 Few Clouds  WSW 3/0 (3/0) 20(69) 91 1028 / 30.35
 06:55 Partly Cloudy  Calm 20(67) 91 1027 / 30.33
 05:55 Few Clouds  Calm 19(66) 91 1027 / 30.32
 04:55 Few Clouds  Calm 20(67) 90 1027 / 30.32
 03:55 Few Clouds  Calm 20(68) 89 1027 / 30.32
 02:55 Few Clouds  SSW 3/0 (3/0) 20(69) 88 1027 / 30.33
 01:55 Few Clouds  SSW 4/0 (5/0) 20(69) 88 1027 / 30.33
 00:55 Few Clouds  S 5/0 (6/0) 20(69) 87 1027 / 30.34
 23:55 Few Clouds  S 4/0 (5/0) 21(69) 87 1027 / 30.34
 22:55 Few Clouds  S 4/0 (5/0) 21(70) 85 1028 / 30.35
 21:55 Few Clouds  S 4/0 (5/0) 21(70) 84 1028 / 30.35
 21:29 Few Clouds  SSW 4/0 (5/0) 21(70) 84 1028 / 30.35
 20:55 Mostly Cloudy  SSW 5/0 (6/0) 22(71) 82 1028 / 30.35
 20:36 Mostly Cloudy  SSW 4/0 (5/0) 22(71) 82 1027 / 30.34
 20:09 Mostly Cloudy  SSW 4/0 (5/0) 22(71) 82 1027 / 30.34
 19:55 Partly Cloudy  SSW 5/0 (6/0) 22(71) 81 1027 / 30.33
 18:55 Partly Cloudy  S 7/0 (8/0) 22(72) 78 1026 / 30.31
 17:55 Partly Cloudy  S 8/0 (9/0) 23(73) 78 1026 / 30.30
 16:55 Partly Cloudy  S 10/0 (12/0) 23(73) 77 1026 / 30.30
 15:55 Few Clouds  S 10/0 (12/0) 24(75) 76 1026 / 30.30
 14:55 Partly Cloudy  S 10/0 (12/0) 24(76) 72 1027 / 30.32
 14:31 Partly Cloudy  S 9/0 (10/0) 24(75) 75 1027 / 30.32
 14:03 Mostly Cloudy  S 10/0 (12/0) 24(74) 74 1027 / 30.32
 13:55 Mostly Cloudy  S 10/0 (12/0) 24(75) 75 1027 / 30.32
 12:55 Mostly Cloudy  S 9/0 (10/0) 24(76) 72 1027 / 30.33
 11:55 Mostly Cloudy  S 9/0 (10/0) 24(75) 74 1027 / 30.34
 10:55 Mostly Cloudy  S 9/0 (10/0) 23(73) 76 1027 / 30.33
 09:55 Few Clouds  SSE 8/0 (9/0) 23(73) 78 1026 / 30.31
 08:55 Partly Cloudy  SSE 8/0 (9/0) 22(72) 80 1026 / 30.29
 07:55 Mostly Cloudy  SSE 8/0 (9/0) 22(71) 85 1025 / 30.27
 06:55 Partly Cloudy  S 10/0 (12/0) 21(69) 86 1024 / 30.25
 05:55 Mostly Cloudy  SSE 9/0 (10/0) 21(69) 86 1024 / 30.23
 04:55 Mostly Cloudy  S 9/0 (10/0) 21(70) 87 1023 / 30.22
 03:55 Partly Cloudy  S 10/0 (12/0) 21(69) 87 1023 / 30.22
 02:55 Partly Cloudy  S 11/0 (13/0) 21(69) 87 1023 / 30.22
 01:55 Partly Cloudy  SSE 12/0 (14/0) 21(69) 88 1024 / 30.23
 00:55 Partly Cloudy  SSE 14/0 (16/0) 21(70) 87 1024 / 30.23
 23:55 Partly Cloudy  SSE 13/0 (15/0) 21(70) 88 1024 / 30.23
 22:55 Mostly Cloudy  SE 13/0 (15/0) 21(70) 88 1024 / 30.23
 21:55 Mostly Cloudy  SSE 13/0 (15/0) 21(70) 88 1024 / 30.23
 21:29 Mostly Cloudy Showers SSE 12/0 (14/0) 21(70) 88 1023 / 30.22
 20:55 Mostly Cloudy Showers SSE 11/0 (13/0) 21(71) 87 1023 / 30.22
 19:55 Mostly Cloudy Showers SSE 13/0 (15/0) 21(71) 86 1023 / 30.22
 18:55 Mostly Cloudy Showers SSE 11/0 (13/0) 22(71) 85 1023 / 30.21
 18:08 Mostly Cloudy Showers SSE 12/0 (14/0) 22(71) 84 1023 / 30.20
 17:55 Mostly Cloudy Showers SSE 12/0 (14/0) 22(72) 83 1023 / 30.20
 17:24 Mostly Cloudy Showers SSE 12/0 (14/0) 22(72) 82 1022 / 30.19
 16:55 Mostly Cloudy  SSE 13/0 (15/0) 22(72) 82 1022 / 30.18
 15:55 Mostly Cloudy  SSE 13/0 (15/0) 23(73) 80 1022 / 30.19
 14:55 Mostly Cloudy  SSE 14/0 (16/0) 23(73) 79 1023 / 30.20
 13:55 Mostly Cloudy  SSE 16/0 (18/0) 23(74) 75 1023 / 30.20
 12:55 Mostly Cloudy  SSE 15/0 (17/0) 24(74) 75 1023 / 30.20
 11:55 Mostly Cloudy  SSE 16/0 (18/0) 23(73) 78 1023 / 30.21
 10:55 Mostly Cloudy  SSE 15/0 (17/0) 22(72) 80 1023 / 30.20
 09:55 Mostly Cloudy  SSE 15/0 (17/0) 22(72) 80 1022 / 30.19
 08:55 Mostly Cloudy  SSE 13/0 (15/0) 22(71) 83 1022 / 30.19
 08:03 Mostly Cloudy Showers SSE 13/0 (15/0) 21(70) 84 1022 / 30.18
 07:55 Mostly Cloudy Showers SSE 14/0 (16/0) 21(70) 84 1022 / 30.18
 06:55 Mostly Cloudy  SSE 14/0 (16/0) 21(69) 85 1021 / 30.16
 06:40 Mostly Cloudy  SSE 14/0 (16/0) 21(70) 85 1021 / 30.15
 05:55 Mostly Cloudy  SSE 13/0 (15/0) 21(70) 86 1021 / 30.14
 05:27 Mostly Cloudy  SSE 14/0 (16/0) 21(70) 85 1021 / 30.14
 04:55 Partly Cloudy  SSE 14/0 (16/0) 21(69) 86 1021 / 30.14
 03:55 Mostly Cloudy  SSE 14/0 (16/0) 21(70) 86 1020 / 30.13
 02:55 Partly Cloudy  SSE 15/0 (17/0) 21(70) 86 1021 / 30.14
 01:55 Mostly Cloudy  SSE 16/0 (18/0) 21(70) 86 1021 / 30.15
 00:55 Mostly Cloudy  SSE 15/0 (17/0) 21(70) 87 1021 / 30.16
 23:55 Mostly Cloudy  SSE 16/0 (18/0) 21(70) 86 1021 / 30.16
 22:55 Mostly Cloudy  SSE 17/0 (20/0) 21(70) 87 1021 / 30.16
 22:26 Mostly Cloudy  SE 17/0 (20/0) 21(70) 87 1021 / 30.15
 21:55 Mostly Cloudy  SE 18/0 (21/0) 21(70) 86 1021 / 30.15
 21:22 Mostly Cloudy  SE 17/0 (20/0) 21(71) 85 1021 / 30.14
 20:55 Mostly Cloudy  SE 18/0 (21/0) 21(70) 86 1021 / 30.14
 19:55 Mostly Cloudy  SE 17/0 (20/0) 21(71) 85 1020 / 30.12
 18:55 Mostly Cloudy  SE 17/0 (20/0) 22(71) 83 1020 / 30.11
 18:25 Mostly Cloudy  SE 17/0 (20/0) 22(71) 83 1020 / 30.11
 17:55 Mostly Cloudy  SSE 17/0 (20/0) 22(72) 81 1019 / 30.10
 17:41 Mostly Cloudy  SSE 17/0 (20/0) 22(72) 82 1019 / 30.10
 16:55 Mostly Cloudy  SSE 18/0 (21/0) 22(72) 82 1019 / 30.09
 15:55 Mostly Cloudy  SSE 17/0 (20/0) 22(72) 80 1019 / 30.10
 14:55 Mostly Cloudy  SE 17/0 (20/0) 23(73) 79 1020 / 30.12
 13:55 Mostly Cloudy  SE 16/0 (18/0) 23(73) 81 1020 / 30.12
 12:55 Mostly Cloudy  SE 15/0 (17/0) 22(72) 81 1020 / 30.13
 12:34 Overcast  SE 14/0 (16/0) 22(72) 82 1020 / 30.13
 11:55 Mostly Cloudy Showers SE 16/0 (18/0) 22(72) 82 1021 / 30.14
 11:10 Overcast  SE 15/0 (17/0) 22(71) 83 1020 / 30.13
 10:55 Overcast Showers SE 15/0 (17/0) 22(71) 84 1020 / 30.13
 10:21 Overcast  SE 16/0 (18/0) 22(71) 84 1020 / 30.12
 09:55 Mostly Cloudy  SE 16/0 (18/0) 22(71) 83 1020 / 30.11
 08:55 Mostly Cloudy  SE 17/0 (20/0) 21(70) 85 1019 / 30.10
Observations from our AWOS sites are available here (password and username are both 'guest').